Time;durP1;ratioP1;P1;durP2;ratioP2;P2;SDS_P1;SDS_P2;PMS_P1;PMS_P2;Temp;Humidity;BMP_temperature;BMP_pressure;BME280_temperature;BME280_humidity;BME280_pressure;Samples;Min_cycle;Max_cycle;Signal;HPM_P1;HPM_P2
2021/01/07 00:00:17;;;;;;;58.50;24.02;;;;;;;0.80;100.00;101523.47;4954653;28;20045;-80
2021/01/07 00:02:43;;;;;;;56.90;22.95;;;;;;;0.78;100.00;101507.72;4954235;28;20036;-78
2021/01/07 00:05:09;;;;;;;56.05;22.02;;;;;;;0.82;100.00;101508.41;4954515;28;20528;-78
2021/01/07 00:07:35;;;;;;;58.53;21.80;;;;;;;0.83;100.00;101507.47;4955439;28;20066;-79
2021/01/07 00:10:01;;;;;;;58.90;21.75;;;;;;;0.82;100.00;101496.03;4954708;28;20082;-79
2021/01/07 00:12:27;;;;;;;48.58;20.55;;;;;;;0.87;100.00;101499.28;4953993;28;20086;-79
2021/01/07 00:14:53;;;;;;;52.05;21.35;;;;;;;0.85;100.00;101516.97;4954227;28;20023;-80
2021/01/07 00:17:19;;;;;;;56.85;22.73;;;;;;;0.86;100.00;101507.28;4953923;28;20031;-79
2021/01/07 00:19:44;;;;;;;59.80;22.25;;;;;;;0.87;100.00;101507.19;4953073;29;20081;-79
2021/01/07 00:22:10;;;;;;;53.33;21.17;;;;;;;0.91;100.00;101508.72;4953875;28;20163;-79
2021/01/07 00:24:35;;;;;;;52.72;22.00;;;;;;;0.94;100.00;101505.88;4954525;28;20039;-80
2021/01/07 00:27:01;;;;;;;55.53;21.98;;;;;;;0.91;100.00;101505.25;4947283;28;20039;-78
2021/01/07 00:29:26;;;;;;;54.75;21.63;;;;;;;0.93;100.00;101501.56;4936978;28;20039;-79
2021/01/07 00:31:52;;;;;;;50.75;21.95;;;;;;;0.92;100.00;101499.84;4953782;28;20019;-81
2021/01/07 00:34:18;;;;;;;54.63;21.85;;;;;;;0.92;100.00;101496.38;4954299;28;20039;-80
2021/01/07 00:36:43;;;;;;;56.70;22.73;;;;;;;0.93;100.00;101500.69;4953172;28;20405;-79
2021/01/07 00:39:09;;;;;;;56.60;21.65;;;;;;;0.91;100.00;101490.25;4953917;28;20039;-79
2021/01/07 00:41:34;;;;;;;51.42;22.58;;;;;;;0.94;100.00;101495.31;4953166;28;20453;-79
2021/01/07 00:44:00;;;;;;;56.90;23.52;;;;;;;0.94;100.00;101487.41;4954003;28;20042;-81
2021/01/07 00:46:25;;;;;;;51.42;21.70;;;;;;;0.98;100.00;101490.72;4953336;28;20537;-79
2021/01/07 00:48:51;;;;;;;54.33;22.40;;;;;;;0.98;100.00;101486.28;4953666;28;20039;-79
2021/01/07 00:51:16;;;;;;;52.47;23.73;;;;;;;0.96;100.00;101485.53;4950133;29;20067;-79
2021/01/07 00:53:42;;;;;;;55.10;22.77;;;;;;;0.96;100.00;101487.34;4953395;28;20038;-79
2021/01/07 00:56:07;;;;;;;55.58;22.95;;;;;;;0.97;100.00;101478.47;4953344;28;20043;-80
2021/01/07 00:58:33;;;;;;;51.70;22.70;;;;;;;0.95;100.00;101475.88;4948374;28;20027;-79
2021/01/07 01:00:59;;;;;;;53.92;23.58;;;;;;;0.93;100.00;101477.78;4953302;28;20027;-79
2021/01/07 01:03:24;;;;;;;49.53;22.10;;;;;;;1.01;100.00;101477.34;4953170;28;20035;-81
2021/01/07 01:05:51;;;;;;;56.30;22.55;;;;;;;0.98;100.00;101477.50;4952801;28;20027;-79
2021/01/07 01:08:17;;;;;;;53.45;22.42;;;;;;;0.93;100.00;101482.22;4967164;28;20027;-79
2021/01/07 01:10:43;;;;;;;55.80;22.02;;;;;;;0.90;100.00;101474.44;4953868;28;20441;-79
2021/01/07 01:13:09;;;;;;;57.70;23.48;;;;;;;0.88;100.00;101478.97;4953124;28;20035;-79
2021/01/07 01:15:35;;;;;;;55.30;23.52;;;;;;;0.84;100.00;101472.16;4953526;28;20039;-79
2021/01/07 01:18:01;;;;;;;59.53;23.50;;;;;;;0.86;100.00;101472.94;4952670;28;20114;-80
2021/01/07 01:20:26;;;;;;;49.00;20.77;;;;;;;0.82;100.00;101466.13;4953152;28;20400;-79
2021/01/07 01:22:51;;;;;;;52.00;21.98;;;;;;;0.76;100.00;101464.69;4952727;28;20035;-79
2021/01/07 01:25:17;;;;;;;52.55;23.10;;;;;;;0.67;100.00;101468.72;4951830;28;20064;-80
2021/01/07 01:27:44;;;;;;;59.42;23.80;;;;;;;0.59;100.00;101472.72;4950154;28;20036;-79
2021/01/07 01:30:12;;;;;;;53.83;21.92;;;;;;;0.56;100.00;101470.28;4952888;28;20068;-79
2021/01/07 01:32:39;;;;;;;54.20;21.88;;;;;;;0.51;100.00;101475.81;4952685;28;20127;-79
2021/01/07 01:35:06;;;;;;;54.13;22.75;;;;;;;0.48;100.00;101466.25;4953204;28;20082;-79
2021/01/07 01:37:34;;;;;;;58.25;23.05;;;;;;;0.42;100.00;101471.03;4952313;28;20035;-79
2021/01/07 01:39:59;;;;;;;61.33;24.00;;;;;;;0.41;100.00;101477.25;4952515;28;20070;-79
2021/01/07 01:42:26;;;;;;;55.85;22.20;;;;;;;0.37;100.00;101476.56;4952718;28;20063;-79
2021/01/07 01:44:52;;;;;;;57.72;22.55;;;;;;;0.39;100.00;101477.31;4952729;28;20061;-79
2021/01/07 01:47:18;;;;;;;55.50;21.90;;;;;;;0.35;100.00;101474.94;4952321;28;20050;-79
2021/01/07 01:49:47;;;;;;;61.95;24.30;;;;;;;0.37;100.00;101481.84;4952135;28;20042;-78
2021/01/07 01:52:13;;;;;;;57.78;22.75;;;;;;;0.35;100.00;101472.31;4952378;28;20043;-79
2021/01/07 01:54:39;;;;;;;53.50;21.55;;;;;;;0.37;100.00;101484.50;4952337;28;20290;-79
2021/01/07 01:57:06;;;;;;;51.83;22.40;;;;;;;0.42;100.00;101478.97;4962483;28;20082;-79
2021/01/07 01:59:33;;;;;;;67.35;22.90;;;;;;;0.39;100.00;101474.69;4951169;28;20444;-79
2021/01/07 02:02:07;;;;;;;47.80;21.80;;;;;;;0.41;100.00;101477.25;4952547;28;20063;-78
2021/01/07 02:04:34;;;;;;;53.15;21.98;;;;;;;0.38;100.00;101480.06;4952907;28;20027;-80
2021/01/07 02:07:02;;;;;;;54.28;22.98;;;;;;;0.37;100.00;101473.94;4952197;28;20064;-80
2021/01/07 02:09:28;;;;;;;55.10;21.13;;;;;;;0.38;100.00;101473.00;4952386;28;20238;-79
2021/01/07 02:11:56;;;;;;;51.90;22.65;;;;;;;0.39;100.00;101472.03;4952672;28;20024;-80
2021/01/07 02:14:22;;;;;;;52.53;22.45;;;;;;;0.38;100.00;101465.06;4952191;28;20039;-80
2021/01/07 02:16:47;;;;;;;51.33;20.77;;;;;;;0.41;100.00;101475.47;4952518;28;20513;-79
2021/01/07 02:19:13;;;;;;;51.83;21.85;;;;;;;0.39;100.00;101477.31;4954964;28;20062;-79
2021/01/07 02:21:39;;;;;;;51.22;21.58;;;;;;;0.39;100.00;101476.47;4957027;28;20161;-79
2021/01/07 02:24:05;;;;;;;51.38;22.50;;;;;;;0.37;100.00;101473.94;4956240;28;20086;-79
2021/01/07 02:26:30;;;;;;;61.58;23.98;;;;;;;0.36;100.00;101477.53;4956097;28;20031;-79
2021/01/07 02:28:56;;;;;;;48.15;21.00;;;;;;;0.37;100.00;101479.22;4970958;28;20038;-81
2021/01/07 02:31:21;;;;;;;49.80;21.83;;;;;;;0.38;100.00;101480.06;4955196;28;20039;-79
2021/01/07 02:33:47;;;;;;;51.45;20.60;;;;;;;0.41;100.00;101479.91;4954511;28;20086;-79
2021/01/07 02:36:12;;;;;;;50.72;21.45;;;;;;;0.44;100.00;101475.28;4956144;28;20031;-80
2021/01/07 02:38:39;;;;;;;57.15;22.63;;;;;;;0.46;100.00;101477.84;4956087;28;20117;-78
2021/01/07 02:41:05;;;;;;;55.50;22.15;;;;;;;0.49;100.00;101477.66;4955859;28;20557;-79
2021/01/07 02:43:31;;;;;;;46.17;20.48;;;;;;;0.50;100.00;101467.03;4955921;28;20552;-80
2021/01/07 02:45:57;;;;;;;52.97;21.23;;;;;;;0.52;100.00;101467.78;4955925;28;20031;-79
2021/01/07 02:48:22;;;;;;;51.05;21.33;;;;;;;0.52;100.00;101473.06;4955974;28;20113;-79
2021/01/07 02:50:48;;;;;;;50.15;21.33;;;;;;;0.52;100.00;101477.50;4955415;29;20031;-81
2021/01/07 02:53:15;;;;;;;45.90;19.23;;;;;;;0.55;100.00;101477.31;4970662;28;20035;-79
2021/01/07 02:55:40;;;;;;;44.72;20.63;;;;;;;0.56;100.00;101468.47;4955447;28;20127;-80
2021/01/07 02:58:06;;;;;;;44.50;19.83;;;;;;;0.57;100.00;101470.19;4955635;28;20111;-79
2021/01/07 03:00:33;;;;;;;44.67;19.92;;;;;;;0.58;100.00;101469.22;4955539;28;20133;-79
2021/01/07 03:02:58;;;;;;;46.15;20.25;;;;;;;0.61;100.00;101465.59;4955378;28;20027;-81
2021/01/07 03:05:24;;;;;;;48.95;20.80;;;;;;;0.61;100.00;101461.16;4970283;28;20043;-79
2021/01/07 03:07:54;;;;;;;46.28;20.23;;;;;;;0.61;100.00;101466.44;4970104;28;20086;-79
2021/01/07 03:10:20;;;;;;;48.67;19.75;;;;;;;0.61;100.00;101462.94;4954196;28;20031;-79
2021/01/07 03:12:45;;;;;;;51.40;20.65;;;;;;;0.61;100.00;101455.03;4955720;28;20106;-79
2021/01/07 03:15:11;;;;;;;44.35;19.50;;;;;;;0.59;100.00;101460.38;4955087;28;20038;-79
2021/01/07 03:17:37;;;;;;;49.33;20.75;;;;;;;0.59;100.00;101455.09;4955126;28;20083;-79
2021/01/07 03:20:11;;;;;;;46.67;18.20;;;;;;;0.58;100.00;101450.75;4970261;28;20039;-80
2021/01/07 03:22:38;;;;;;;44.65;20.10;;;;;;;0.58;100.00;101449.91;4954406;28;20031;-79
2021/01/07 03:25:04;;;;;;;48.45;20.08;;;;;;;0.58;100.00;101455.19;4954948;28;20393;-79
2021/01/07 03:27:30;;;;;;;41.70;18.38;;;;;;;0.57;100.00;101453.50;4955065;28;20046;-79
2021/01/07 03:29:55;;;;;;;49.25;20.05;;;;;;;0.58;100.00;101447.25;4940608;28;20042;-79
2021/01/07 03:32:24;;;;;;;50.25;21.00;;;;;;;0.55;100.00;101447.41;4955232;28;20471;-78
2021/01/07 03:34:51;;;;;;;45.05;19.65;;;;;;;0.57;100.00;101448.22;4954881;28;20122;-79
2021/01/07 03:37:17;;;;;;;48.28;20.17;;;;;;;0.59;100.00;101446.31;4955012;28;20090;-79
2021/01/07 03:39:43;;;;;;;51.28;20.85;;;;;;;0.59;100.00;101443.69;4954853;28;20035;-79
2021/01/07 03:42:09;;;;;;;48.35;20.95;;;;;;;0.60;100.00;101445.38;4955099;28;20074;-78
2021/01/07 03:44:34;;;;;;;50.15;20.85;;;;;;;0.59;100.00;101439.25;4953671;28;20059;-78
2021/01/07 03:47:00;;;;;;;46.45;21.23;;;;;;;0.60;100.00;101437.44;4954600;28;20031;-78
2021/01/07 03:49:25;;;;;;;51.13;21.15;;;;;;;0.61;100.00;101431.25;4954678;28;20042;-78
2021/01/07 03:51:51;;;;;;;52.00;20.98;;;;;;;0.63;100.00;101432.84;4968736;28;20370;-79
2021/01/07 03:54:16;;;;;;;51.30;19.75;;;;;;;0.63;100.00;101432.00;4953428;28;20516;-79
2021/01/07 03:56:41;;;;;;;46.42;21.00;;;;;;;0.64;100.00;101423.97;4954597;28;20039;-80
2021/01/07 03:59:07;;;;;;;52.40;21.20;;;;;;;0.67;100.00;101431.75;4946898;28;20082;-78
2021/01/07 04:01:32;;;;;;;47.72;19.45;;;;;;;0.68;100.00;101424.66;4953509;28;20102;-79
2021/01/07 04:03:58;;;;;;;48.28;19.15;;;;;;;0.66;100.00;101431.84;4954788;28;20434;-78
2021/01/07 04:06:23;;;;;;;47.88;20.08;;;;;;;0.67;100.00;101431.75;4953260;28;20094;-79
2021/01/07 04:08:49;;;;;;;52.95;20.67;;;;;;;0.69;100.00;101424.56;4955043;28;20028;-79
2021/01/07 04:11:14;;;;;;;49.45;20.38;;;;;;;0.66;100.00;101427.41;4954271;28;20476;-79
2021/01/07 04:13:40;;;;;;;46.70;19.50;;;;;;;0.68;100.00;101414.94;4954500;28;20041;-79
2021/01/07 04:16:05;;;;;;;46.13;20.33;;;;;;;0.70;100.00;101421.00;4953921;28;20031;-78
2021/01/07 04:18:31;;;;;;;44.90;19.63;;;;;;;0.72;100.00;101424.41;4954086;28;20436;-78
2021/01/07 04:20:56;;;;;;;45.40;20.15;;;;;;;0.76;100.00;101425.94;4949137;28;20168;-79
2021/01/07 04:23:22;;;;;;;46.72;19.88;;;;;;;0.80;100.00;101418.66;4954420;28;20038;-79
2021/01/07 04:25:47;;;;;;;45.00;19.20;;;;;;;0.85;100.00;101421.88;4952789;28;20525;-78
2021/01/07 04:28:13;;;;;;;46.85;18.15;;;;;;;0.89;100.00;101425.19;4954028;28;20043;-79
2021/01/07 04:30:38;;;;;;;43.28;18.17;;;;;;;0.86;100.00;101409.56;4940739;28;20584;-79
2021/01/07 04:33:04;;;;;;;41.20;17.70;;;;;;;0.88;100.00;101420.88;4954363;28;20040;-78
2021/01/07 04:35:30;;;;;;;47.80;21.10;;;;;;;0.89;100.00;101415.47;4954037;28;20031;-78
2021/01/07 04:37:55;;;;;;;50.33;22.65;;;;;;;0.93;100.00;101418.81;4969368;28;20042;-79
2021/01/07 04:40:21;;;;;;;44.95;23.05;;;;;;;0.93;100.00;101410.88;4953199;28;20043;-80
2021/01/07 04:42:46;;;;;;;42.75;18.52;;;;;;;0.94;100.00;101416.06;4953684;28;20031;-79
2021/01/07 04:45:12;;;;;;;47.28;21.38;;;;;;;1.03;100.00;101398.81;4953144;28;20031;-79
2021/01/07 04:47:40;;;;;;;42.30;18.65;;;;;;;1.02;100.00;101397.97;4953566;28;20093;-79
2021/01/07 04:50:06;;;;;;;47.42;19.58;;;;;;;0.99;100.00;101397.31;4953599;28;20054;-80
2021/01/07 04:52:33;;;;;;;46.13;20.67;;;;;;;1.00;100.00;101401.63;4953490;28;20118;-79
2021/01/07 04:55:00;;;;;;;59.85;24.40;;;;;;;1.01;100.00;101398.06;4968288;28;20061;-80
2021/01/07 04:57:26;;;;;;;46.13;19.90;;;;;;;0.99;100.00;101397.31;4952536;28;20035;-79
2021/01/07 04:59:51;;;;;;;54.25;24.35;;;;;;;0.99;100.00;101398.16;4952806;28;20035;-79
2021/01/07 05:02:17;;;;;;;64.90;28.75;;;;;;;1.00;100.00;101401.63;4953265;28;20035;-79
2021/01/07 05:04:48;;;;;;;59.13;25.85;;;;;;;0.99;100.00;101400.78;4953483;28;20039;-79
2021/01/07 05:07:16;;;;;;;59.85;25.98;;;;;;;0.98;100.00;101401.75;4953227;28;20114;-79
2021/01/07 05:09:42;;;;;;;292.42;108.20;;;;;;;0.97;100.00;101399.19;4953828;28;20078;-79
2021/01/07 05:12:08;;;;;;;179.25;53.55;;;;;;;1.04;100.00;101397.88;4953074;28;20046;-79
2021/01/07 05:14:47;;;;;;;75.35;34.05;;;;;;;0.97;100.00;101401.84;4952132;28;20477;-79
2021/01/07 05:17:16;;;;;;;46.28;18.85;;;;;;;1.01;100.00;101393.63;4952910;28;20122;-79
2021/01/07 05:19:42;;;;;;;46.17;22.77;;;;;;;0.97;100.00;101396.56;4951833;28;20094;-79
2021/01/07 05:22:08;;;;;;;88.75;39.42;;;;;;;0.96;100.00;101397.50;4952812;28;20035;-81
2021/01/07 05:24:34;;;;;;;39.53;17.80;;;;;;;0.96;100.00;101393.06;4953143;28;20031;-79
2021/01/07 05:27:07;;;;;;;43.65;19.23;;;;;;;0.94;100.00;101386.16;4952434;28;20043;-80
2021/01/07 05:29:33;;;;;;;38.25;18.65;;;;;;;0.99;100.00;101382.28;4952831;28;20062;-79
2021/01/07 05:31:59;;;;;;;46.58;24.65;;;;;;;1.00;100.00;101383.13;4952994;28;20035;-79
2021/01/07 05:34:24;;;;;;;41.45;20.08;;;;;;;1.02;100.00;101382.13;4952723;28;20374;-79
2021/01/07 05:36:56;;;;;;;47.75;19.85;;;;;;;1.00;100.00;101378.72;4952627;28;20031;-79
2021/01/07 05:39:21;;;;;;;38.92;18.65;;;;;;;0.93;100.00;101376.53;4952707;28;20078;-79
2021/01/07 05:41:52;;;;;;;46.25;19.05;;;;;;;0.91;100.00;101381.91;4952441;28;20039;-80
2021/01/07 05:44:21;;;;;;;45.72;20.65;;;;;;;0.94;100.00;101380.88;4952803;28;20038;-79
2021/01/07 05:46:47;;;;;;;39.97;17.77;;;;;;;0.96;100.00;101381.66;4967239;28;20393;-79
2021/01/07 05:49:13;;;;;;;45.13;19.90;;;;;;;0.92;100.00;101380.13;4952585;28;20035;-79
2021/01/07 05:51:45;;;;;;;46.70;21.35;;;;;;;0.94;100.00;101380.88;4952377;28;20393;-79
2021/01/07 05:54:12;;;;;;;43.30;18.08;;;;;;;0.91;100.00;101373.16;4949421;28;20397;-79
2021/01/07 05:56:40;;;;;;;48.22;21.25;;;;;;;1.01;100.00;101376.94;4952228;28;20035;-80
2021/01/07 05:59:07;;;;;;;49.38;20.77;;;;;;;0.93;100.00;101381.81;4954545;28;20023;-79
2021/01/07 06:01:33;;;;;;;54.55;23.08;;;;;;;0.90;100.00;101379.34;4952810;28;20043;-79
2021/01/07 06:04:04;;;;;;;50.55;23.27;;;;;;;0.99;100.00;101377.00;4952251;28;20110;-79
2021/01/07 06:06:30;;;;;;;90.50;42.22;;;;;;;0.96;100.00;101373.72;4952749;28;20397;-79
2021/01/07 06:08:56;;;;;;;57.72;29.58;;;;;;;1.01;100.00;101376.94;4952472;28;20489;-79
2021/01/07 06:11:24;;;;;;;57.97;27.02;;;;;;;1.00;100.00;101383.13;4952592;28;20039;-79
2021/01/07 06:13:52;;;;;;;49.58;23.30;;;;;;;1.02;100.00;101378.63;4952403;28;20031;-80
2021/01/07 06:16:19;;;;;;;42.08;19.40;;;;;;;1.07;100.00;101384.50;4952248;28;20478;-79
2021/01/07 06:18:45;;;;;;;41.42;18.75;;;;;;;1.04;100.00;101384.66;4952166;28;20027;-79
2021/01/07 06:21:12;;;;;;;42.22;18.55;;;;;;;1.02;100.00;101382.13;4952336;28;20039;-79
2021/01/07 06:23:44;;;;;;;40.28;19.27;;;;;;;1.09;100.00;101377.31;4952457;28;20130;-78
2021/01/07 06:26:18;;;;;;;41.88;19.38;;;;;;;1.04;100.00;101376.72;4952207;28;20027;-79
2021/01/07 06:28:49;;;;;;;57.10;26.23;;;;;;;1.02;100.00;101387.41;4952307;28;20039;-79
2021/01/07 06:31:16;;;;;;;40.22;19.65;;;;;;;1.07;100.00;101384.50;4942303;28;20036;-81
2021/01/07 06:33:43;;;;;;;45.58;19.38;;;;;;;1.00;100.00;101384.03;4952619;28;20118;-79
2021/01/07 06:36:09;;;;;;;43.90;17.83;;;;;;;0.98;100.00;101383.25;4952155;28;20035;-80
2021/01/07 06:38:35;;;;;;;49.65;19.70;;;;;;;0.97;100.00;101378.91;4951610;28;20085;-80
2021/01/07 06:41:01;;;;;;;70.00;33.17;;;;;;;0.99;100.00;101378.81;4967072;28;20043;-80
2021/01/07 06:43:27;;;;;;;60.75;27.13;;;;;;;1.00;100.00;101380.50;4966790;28;20131;-79
2021/01/07 06:45:55;;;;;;;122.50;64.47;;;;;;;1.11;100.00;101382.53;4951911;28;20126;-79
2021/01/07 06:48:32;;;;;;;46.58;20.15;;;;;;;1.04;100.00;101377.59;4952050;28;20031;-79
2021/01/07 06:50:59;;;;;;;55.42;22.58;;;;;;;1.08;100.00;101385.34;4951766;28;20032;-79
2021/01/07 06:53:25;;;;;;;59.90;21.42;;;;;;;1.11;100.00;101382.53;4951964;28;20035;-80
2021/01/07 06:56:12;;;;;;;57.85;22.10;;;;;;;1.01;100.00;101380.44;4952179;28;20039;-79
2021/01/07 06:58:40;;;;;;;56.42;22.10;;;;;;;0.98;100.00;101382.41;4951669;28;20024;-79
2021/01/07 07:01:07;;;;;;;63.28;22.27;;;;;;;0.95;100.00;101385.22;4951973;28;20074;-79
2021/01/07 07:03:39;;;;;;;70.95;23.25;;;;;;;0.99;100.00;101382.28;4952148;28;20035;-79
2021/01/07 07:06:08;;;;;;;60.90;23.30;;;;;;;0.99;100.00;101376.16;4955761;28;20046;-79
2021/01/07 07:08:35;;;;;;;51.92;20.50;;;;;;;1.04;100.00;101379.38;4955285;28;20118;-80
2021/01/07 07:11:08;;;;;;;55.03;20.15;;;;;;;1.07;100.00;101383.66;4955439;28;20182;-78
2021/01/07 07:13:41;;;;;;;56.35;20.98;;;;;;;1.09;100.00;101385.25;4955741;28;20105;-78
2021/01/07 07:16:09;;;;;;;47.78;20.83;;;;;;;1.05;100.00;101381.06;4955392;28;20042;-78
2021/01/07 07:18:36;;;;;;;62.88;25.17;;;;;;;1.06;100.00;101385.44;4954062;28;20513;-78
2021/01/07 07:21:19;;;;;;;63.53;24.05;;;;;;;1.09;100.00;101389.69;4955283;28;20521;-77
2021/01/07 07:23:46;;;;;;;146.85;65.22;;;;;;;1.07;100.00;101392.41;4955074;28;20099;-79
2021/01/07 07:26:14;;;;;;;98.30;43.15;;;;;;;1.12;100.00;101390.34;4955446;28;20035;-80
2021/01/07 07:28:44;;;;;;;68.60;27.77;;;;;;;1.12;100.00;101389.50;4954883;28;20043;-79
2021/01/07 07:31:10;;;;;;;63.85;27.63;;;;;;;1.14;100.00;101391.09;4955339;28;20298;-78
2021/01/07 07:33:39;;;;;;;60.70;24.08;;;;;;;1.08;100.00;101390.63;4964718;28;20110;-80
2021/01/07 07:36:07;;;;;;;66.28;23.58;;;;;;;1.09;100.00;101390.53;4954723;28;20032;-79
2021/01/07 07:38:35;;;;;;;66.53;23.70;;;;;;;1.11;100.00;101396.59;4954682;28;20066;-80
2021/01/07 07:41:03;;;;;;;64.75;24.15;;;;;;;1.13;100.00;101396.47;4956550;28;20492;-79
2021/01/07 07:43:30;;;;;;;63.45;23.17;;;;;;;1.08;100.00;101395.91;4955606;28;20110;-78
2021/01/07 07:45:56;;;;;;;62.20;24.63;;;;;;;1.12;100.00;101395.63;4955119;28;20035;-82
2021/01/07 07:48:25;;;;;;;68.35;24.38;;;;;;;1.10;100.00;101400.16;4969919;28;20035;-80
2021/01/07 07:50:51;;;;;;;62.58;23.40;;;;;;;1.15;100.00;101400.72;4953766;28;20031;-79
2021/01/07 07:53:16;;;;;;;61.72;22.45;;;;;;;1.15;100.00;101395.44;4955751;28;20042;-79
2021/01/07 07:55:43;;;;;;;65.10;23.20;;;;;;;1.10;100.00;101399.28;4955050;28;20485;-81
2021/01/07 07:58:11;;;;;;;63.58;21.67;;;;;;;1.16;100.00;101399.81;4955228;28;20497;-79
2021/01/07 08:00:37;;;;;;;67.30;22.00;;;;;;;1.21;100.00;101405.66;4954574;28;20031;-79
2021/01/07 08:03:03;;;;;;;65.32;23.38;;;;;;;1.18;100.00;101413.75;4947272;28;20039;-82
2021/01/07 08:05:31;;;;;;;62.30;23.15;;;;;;;1.22;100.00;101411.78;4955762;28;20042;-78
2021/01/07 08:07:57;;;;;;;67.15;26.83;;;;;;;1.21;100.00;101408.31;4956152;28;20046;-80
2021/01/07 08:10:24;;;;;;;67.60;24.77;;;;;;;1.15;100.00;101406.00;4955049;28;20461;-79
2021/01/07 08:12:52;;;;;;;74.63;32.92;;;;;;;1.23;100.00;101414.34;4950070;28;20385;-79
2021/01/07 08:15:28;;;;;;;75.25;27.35;;;;;;;1.21;100.00;101426.81;4952147;28;20027;-79
2021/01/07 08:17:53;;;;;;;65.88;26.30;;;;;;;1.12;100.00;101422.06;4953194;28;20551;-80
2021/01/07 08:20:24;;;;;;;69.05;23.77;;;;;;;1.10;100.00;101426.56;4951829;28;20043;-81
2021/01/07 08:22:52;;;;;;;64.45;21.77;;;;;;;1.08;100.00;101428.47;4968333;28;20536;-80
2021/01/07 08:25:26;;;;;;;76.20;32.83;;;;;;;1.08;100.00;101428.47;4952800;28;20031;-80
2021/01/07 08:27:58;;;;;;;73.28;29.25;;;;;;;1.10;100.00;101428.38;4953509;28;20038;-80
2021/01/07 08:30:25;;;;;;;80.10;32.78;;;;;;;1.10;100.00;101434.50;4967026;28;20420;-79
2021/01/07 08:32:56;;;;;;;80.82;29.77;;;;;;;1.12;100.00;101440.56;4942517;28;20036;-82
2021/01/07 08:35:23;;;;;;;98.15;32.28;;;;;;;1.14;100.00;101435.19;4963243;28;20039;-79
2021/01/07 08:37:48;;;;;;;110.75;45.33;;;;;;;1.15;100.00;101440.34;4951513;28;20114;-79
2021/01/07 08:40:14;;;;;;;74.65;27.35;;;;;;;1.07;100.00;101439.97;4966100;28;20248;-82
2021/01/07 08:42:40;;;;;;;81.45;28.63;;;;;;;1.10;100.00;101431.84;4949820;28;20097;-79
2021/01/07 08:45:07;;;;;;;89.85;29.35;;;;;;;1.14;100.00;101432.53;4951207;28;20038;-81
2021/01/07 08:47:33;;;;;;;82.18;28.27;;;;;;;1.14;100.00;101436.03;4951186;28;20043;-80
2021/01/07 08:50:10;;;;;;;79.55;25.90;;;;;;;1.19;100.00;101436.59;4951553;28;20409;-80
2021/01/07 08:52:53;;;;;;;73.25;25.80;;;;;;;1.19;100.00;101433.97;4950853;28;20038;-81
2021/01/07 08:55:20;;;;;;;81.43;31.67;;;;;;;1.22;100.00;101428.50;4951840;28;20126;-83
2021/01/07 08:57:46;;;;;;;136.15;55.88;;;;;;;1.21;100.00;101429.44;4952295;28;20113;-78
2021/01/07 09:00:14;;;;;;;91.88;38.42;;;;;;;1.22;100.00;101425.00;4952133;28;20487;-82
2021/01/07 09:02:40;;;;;;;100.00;48.47;;;;;;;1.29;100.00;101429.81;4966356;28;20043;-79
2021/01/07 09:05:06;;;;;;;77.60;27.83;;;;;;;1.36;100.00;101426.84;4951545;28;20030;-80
2021/01/07 09:07:31;;;;;;;72.13;25.45;;;;;;;1.35;100.00;101430.38;4951736;28;20039;-79
2021/01/07 09:09:57;;;;;;;74.82;27.63;;;;;;;1.44;100.00;101432.47;4951948;28;20167;-80
2021/01/07 09:12:26;;;;;;;79.45;26.38;;;;;;;1.48;100.00;101428.72;4951371;28;20370;-79
2021/01/07 09:15:05;;;;;;;114.63;49.85;;;;;;;1.56;100.00;101431.75;4951767;28;20027;-79
2021/01/07 09:17:42;;;;;;;105.70;44.75;;;;;;;1.59;100.00;101436.84;4958735;28;20081;-78
2021/01/07 09:20:09;;;;;;;101.28;35.10;;;;;;;1.59;100.00;101434.19;4951595;28;20031;-82
2021/01/07 09:22:36;;;;;;;81.43;31.20;;;;;;;1.67;100.00;101433.72;4951317;28;20694;-82
2021/01/07 09:25:03;;;;;;;66.25;26.80;;;;;;;1.66;100.00;101432.03;4951349;28;20039;-82
2021/01/07 09:27:29;;;;;;;62.80;24.73;;;;;;;1.72;100.00;101440.44;4941208;28;20169;-79
2021/01/07 09:29:55;;;;;;;70.05;24.52;;;;;;;1.85;100.00;101443.16;4956049;28;20177;-78
2021/01/07 09:32:21;;;;;;;70.75;32.63;;;;;;;1.92;100.00;101441.84;4950309;28;20035;-78
2021/01/07 09:34:47;;;;;;;63.97;24.25;;;;;;;1.98;100.00;101436.16;4950859;28;20044;-79
2021/01/07 09:37:17;;;;;;;56.08;23.20;;;;;;;2.04;100.00;101429.63;4949838;28;20035;-80
2021/01/07 09:39:44;;;;;;;53.92;22.65;;;;;;;2.12;100.00;101430.00;4951306;28;20504;-80
2021/01/07 09:42:10;;;;;;;61.80;24.85;;;;;;;2.11;100.00;101436.25;4965827;28;20031;-79
2021/01/07 09:44:36;;;;;;;52.97;21.73;;;;;;;2.18;100.00;101426.94;4951851;28;20054;-79
2021/01/07 09:47:03;;;;;;;54.58;25.25;;;;;;;2.26;100.00;101437.91;4966058;28;20047;-79
2021/01/07 09:49:30;;;;;;;77.65;35.22;;;;;;;2.33;100.00;101431.25;4956436;28;20038;-80
2021/01/07 09:51:56;;;;;;;61.45;25.77;;;;;;;2.33;100.00;101433.91;4962353;28;20073;-80
2021/01/07 09:54:23;;;;;;;42.70;20.48;;;;;;;2.31;100.00;101425.22;4951339;28;20023;-79
2021/01/07 09:56:51;;;;;;;37.92;16.60;;;;;;;2.42;100.00;101434.28;4950409;28;20046;-82
2021/01/07 09:59:16;;;;;;;45.30;17.75;;;;;;;2.28;100.00;101428.06;4954090;28;20117;-79
2021/01/07 10:01:42;;;;;;;43.30;19.13;;;;;;;2.35;100.00;101436.44;4954490;28;20505;-80
2021/01/07 10:04:07;;;;;;;44.67;18.75;;;;;;;2.38;100.00;101430.97;4952457;28;20027;-79
2021/01/07 10:06:33;;;;;;;33.10;16.27;;;;;;;2.39;100.00;101424.72;4950509;28;20489;-80
2021/01/07 10:08:58;;;;;;;36.28;14.98;;;;;;;2.46;100.00;101417.22;4967399;28;20028;-81
2021/01/07 10:11:24;;;;;;;30.45;14.70;;;;;;;2.56;100.00;101420.97;4951492;28;20035;-80
2021/01/07 10:13:50;;;;;;;33.58;13.77;;;;;;;2.55;100.00;101430.69;4952264;28;20039;-80
2021/01/07 10:16:15;;;;;;;34.03;13.68;;;;;;;2.55;100.00;101419.25;4967216;28;20103;-83
2021/01/07 10:18:42;;;;;;;34.88;13.45;;;;;;;2.56;100.00;101428.91;4963682;28;20488;-82
2021/01/07 10:21:09;;;;;;;29.08;13.25;;;;;;;2.59;100.00;101431.38;4963952;28;20035;-79
2021/01/07 10:23:38;;;;;;;36.90;16.05;;;;;;;2.58;100.00;101427.88;4952309;28;20031;-82
2021/01/07 10:26:04;;;;;;;31.52;13.15;;;;;;;2.60;100.00;101422.47;4964215;28;20039;-80
2021/01/07 10:28:29;;;;;;;43.70;19.65;;;;;;;2.53;100.00;101427.31;4951411;28;20378;-79
2021/01/07 10:30:55;;;;;;;33.97;14.00;;;;;;;2.55;100.00;101424.56;4950216;28;20039;-79
2021/01/07 10:33:21;;;;;;;49.50;22.88;;;;;;;2.64;100.00;101416.00;4951231;28;20043;-79
2021/01/07 10:35:47;;;;;;;79.30;34.63;;;;;;;2.69;100.00;101419.22;4965324;28;20472;-79
2021/01/07 10:38:22;;;;;;;61.17;27.60;;;;;;;2.89;100.00;101414.38;4950755;28;20062;-81
2021/01/07 10:40:47;;;;;;;134.80;74.13;;;;;;;2.90;100.00;101410.78;4954762;28;20043;-82
2021/01/07 10:43:14;;;;;;;30.92;15.45;;;;;;;3.01;100.00;101417.06;4954392;28;20042;-79
2021/01/07 10:45:40;;;;;;;25.23;11.57;;;;;;;3.02;100.00;101413.47;4954117;28;20062;-79
2021/01/07 10:48:13;;;;;;;32.83;15.68;;;;;;;3.10;100.00;101415.59;4952826;28;20082;-78
2021/01/07 10:50:41;;;;;;;25.35;10.80;;;;;;;3.10;100.00;101415.59;4953806;28;20049;-79
2021/01/07 10:53:13;;;;;;;21.33;10.43;;;;;;;3.20;100.00;101416.66;4954491;28;20039;-78
2021/01/07 10:55:52;;;;;;;31.05;10.90;;;;;;;3.23;100.00;101410.31;4958879;28;20101;-78
2021/01/07 10:58:27;;;;;;;22.45;10.55;;;;;;;3.31;100.00;101407.97;4946993;28;20331;-77
2021/01/07 11:01:21;;;;;;;22.08;9.77;;;;;;;3.28;100.00;101405.53;4958562;28;20041;-78
2021/01/07 11:03:59;;;;;;;19.35;9.27;;;;;;;3.20;100.00;101405.19;4952875;28;20043;-78
2021/01/07 11:06:30;;;;;;;20.90;9.48;;;;;;;3.20;100.00;101400.75;4961628;28;20066;-78
2021/01/07 11:09:02;;;;;;;20.95;9.35;;;;;;;3.32;100.00;101401.72;4971370;28;20259;-81